createdAt,value
2023-04-09T00:01:10.836Z,10.25
2023-04-09T00:03:39.013Z,10.31
2023-04-09T00:06:06.268Z,10.33
2023-04-09T00:08:33.103Z,10.38
2023-04-09T00:11:00.488Z,10.41
2023-04-09T00:13:38.382Z,10.44
2023-04-09T00:16:06.798Z,10.46
2023-04-09T00:18:33.590Z,10.47
2023-04-09T00:21:00.525Z,10.49
2023-04-09T00:23:27.357Z,10.47
2023-04-09T00:25:54.133Z,10.46
2023-04-09T00:28:20.975Z,10.45
2023-04-09T00:30:47.793Z,10.48
2023-04-09T00:33:14.563Z,10.50
2023-04-09T00:35:41.461Z,10.50
2023-04-09T00:38:08.239Z,10.49
2023-04-09T00:40:34.984Z,10.49
2023-04-09T00:43:02.461Z,10.46
2023-04-09T00:45:29.461Z,10.42
2023-04-09T00:47:56.723Z,10.40
2023-04-09T00:50:23.559Z,10.39
2023-04-09T00:52:50.583Z,10.39
2023-04-09T00:55:18.458Z,10.36
2023-04-09T00:57:45.240Z,10.34
2023-04-09T01:00:13.300Z,10.35
2023-04-09T01:02:41.764Z,10.32
2023-04-09T01:05:10.065Z,10.30
2023-04-09T01:08:01.913Z,10.27
2023-04-09T01:10:42.699Z,10.21
2023-04-09T01:13:28.906Z,10.22
2023-04-09T01:15:59.597Z,10.20
2023-04-09T01:18:51.516Z,10.20
2023-04-09T01:21:23.629Z,10.19
2023-04-09T01:24:31.523Z,10.16
2023-04-09T01:27:09.058Z,10.15
2023-04-09T01:29:41.992Z,10.14
2023-04-09T01:32:10.308Z,10.13
2023-04-09T01:34:38.821Z,10.11
2023-04-09T01:37:06.988Z,10.11
2023-04-09T01:39:34.011Z,10.10
2023-04-09T01:42:04.595Z,10.10
2023-04-09T01:44:32.834Z,10.10
2023-04-09T01:47:01.472Z,10.10
2023-04-09T01:49:29.272Z,10.10
2023-04-09T01:51:56.394Z,10.12
2023-04-09T01:54:23.165Z,10.13
2023-04-09T01:56:50.012Z,10.15
2023-04-09T01:59:16.798Z,10.17
2023-04-09T02:01:56.374Z,10.20
2023-04-09T02:04:30.958Z,10.20
2023-04-09T02:07:28.547Z,10.20
2023-04-09T02:09:56.460Z,10.17
2023-04-09T02:12:25.134Z,10.16
2023-04-09T02:14:53.344Z,10.16
2023-04-09T02:17:20.241Z,10.14
2023-04-09T02:19:48.413Z,10.10
2023-04-09T02:22:16.413Z,10.08
2023-04-09T02:24:43.195Z,10.06
2023-04-09T02:27:10.299Z,10.06
2023-04-09T02:29:37.122Z,10.02
2023-04-09T02:32:03.929Z,9.99
2023-04-09T02:34:30.717Z,9.96
2023-04-09T02:36:57.587Z,9.93
2023-04-09T02:39:24.347Z,9.89
2023-04-09T02:41:52.766Z,9.86
2023-04-09T02:44:19.531Z,9.82
2023-04-09T02:46:49.034Z,9.80
2023-04-09T02:49:16.422Z,9.78
2023-04-09T02:51:43.181Z,9.76
2023-04-09T02:54:10.269Z,9.75
2023-04-09T02:56:37.159Z,9.73
2023-04-09T02:59:03.940Z,9.68
2023-04-09T03:01:30.794Z,9.63
2023-04-09T03:03:57.734Z,9.60
2023-04-09T03:06:24.598Z,9.55
2023-04-09T03:08:51.579Z,9.53
2023-04-09T03:11:18.530Z,9.52
2023-04-09T03:13:45.304Z,9.48
2023-04-09T03:16:12.169Z,9.44
2023-04-09T03:18:38.944Z,9.42
2023-04-09T03:21:07.563Z,9.40
2023-04-09T03:23:35.037Z,9.37
2023-04-09T03:26:05.949Z,9.34
2023-04-09T03:28:32.925Z,9.30
2023-04-09T03:30:59.737Z,9.30
2023-04-09T03:33:26.533Z,9.28
2023-04-09T03:35:53.402Z,9.31
2023-04-09T03:38:20.254Z,9.34
2023-04-09T03:40:47.085Z,9.36
2023-04-09T03:43:13.886Z,9.40
2023-04-09T03:45:40.701Z,9.43
2023-04-09T03:48:07.502Z,9.47
2023-04-09T03:50:43.402Z,9.48
2023-04-09T03:53:10.252Z,9.48
2023-04-09T03:55:37.975Z,9.48
2023-04-09T03:58:04.943Z,9.47
2023-04-09T04:00:31.750Z,9.46
2023-04-09T04:02:58.641Z,9.42
2023-04-09T04:05:26.223Z,9.42
2023-04-09T04:07:53.101Z,9.43
2023-04-09T04:10:20.517Z,9.42
2023-04-09T04:12:47.395Z,9.41
2023-04-09T04:15:14.315Z,9.39
2023-04-09T04:17:41.129Z,9.39
2023-04-09T04:20:08.666Z,9.38
2023-04-09T04:22:35.812Z,9.40
2023-04-09T04:25:04.320Z,9.40
2023-04-09T04:27:31.248Z,9.40
2023-04-09T04:30:00.322Z,9.39
2023-04-09T04:32:27.336Z,9.39
2023-04-09T04:34:54.251Z,9.38
2023-04-09T04:37:21.663Z,9.38
2023-04-09T04:39:48.811Z,9.36
2023-04-09T04:42:16.519Z,9.37
2023-04-09T04:44:44.175Z,9.34
2023-04-09T04:47:10.961Z,9.32
2023-04-09T04:49:37.742Z,9.33
2023-04-09T04:52:04.730Z,9.32
2023-04-09T04:54:31.651Z,9.32
2023-04-09T04:56:58.446Z,9.34
2023-04-09T04:59:25.339Z,9.35
2023-04-09T05:01:52.188Z,9.39
2023-04-09T05:04:19.005Z,9.43
2023-04-09T05:06:45.770Z,9.45
2023-04-09T05:09:12.643Z,9.46
2023-04-09T05:11:39.418Z,9.48
2023-04-09T05:14:06.617Z,9.49
2023-04-09T05:16:33.460Z,9.52
2023-04-09T05:19:00.267Z,9.55
2023-04-09T05:21:27.562Z,9.59
2023-04-09T05:23:54.735Z,9.59
2023-04-09T05:26:22.569Z,9.65
2023-04-09T05:28:49.759Z,9.68
2023-04-09T05:31:16.717Z,9.71
2023-04-09T05:33:43.598Z,9.71
2023-04-09T05:36:16.981Z,9.71
2023-04-09T05:38:46.284Z,9.71
2023-04-09T05:41:13.260Z,9.72
2023-04-09T05:43:40.520Z,9.74
2023-04-09T05:46:07.410Z,9.74
2023-04-09T05:48:37.428Z,9.72
2023-04-09T05:51:04.487Z,9.71
2023-04-09T05:53:32.082Z,9.73
2023-04-09T05:55:58.939Z,9.76
2023-04-09T05:58:25.873Z,9.80
2023-04-09T06:00:52.627Z,9.85
2023-04-09T06:03:19.826Z,9.87
2023-04-09T06:05:46.872Z,9.92
2023-04-09T06:08:14.080Z,9.97
2023-04-09T06:10:41.500Z,10.02
2023-04-09T06:13:08.415Z,10.09
2023-04-09T06:15:36.262Z,10.12
2023-04-09T06:18:03.206Z,10.17
2023-04-09T06:20:30.481Z,10.23
2023-04-09T06:22:57.259Z,10.30
2023-04-09T06:25:24.129Z,10.37
2023-04-09T06:27:50.892Z,10.41
2023-04-09T06:30:17.708Z,10.46
2023-04-09T06:32:54.451Z,10.48
2023-04-09T06:35:22.591Z,10.49
2023-04-09T06:37:49.422Z,10.52
2023-04-09T06:40:16.344Z,10.57
2023-04-09T06:42:43.128Z,10.61
2023-04-09T06:45:10.213Z,10.67
2023-04-09T06:47:37.024Z,10.75
2023-04-09T06:50:04.440Z,10.83
2023-04-09T06:52:31.249Z,10.89
2023-04-09T06:54:58.031Z,10.92
2023-04-09T06:57:25.460Z,10.94
2023-04-09T06:59:52.207Z,10.94
2023-04-09T07:02:19.077Z,10.97
2023-04-09T07:04:45.987Z,10.99
2023-04-09T07:07:12.812Z,11.02
2023-04-09T07:09:39.690Z,11.04
2023-04-09T07:12:06.463Z,11.08
2023-04-09T07:14:33.255Z,11.10
2023-04-09T07:17:00.031Z,11.17
2023-04-09T07:19:26.788Z,11.25
2023-04-09T07:21:53.692Z,11.30
2023-04-09T07:24:20.565Z,11.34
2023-04-09T07:26:47.945Z,11.39
2023-04-09T07:29:15.225Z,11.44
2023-04-09T07:31:42.029Z,11.48
2023-04-09T07:34:08.832Z,11.55
2023-04-09T07:36:35.639Z,11.63
2023-04-09T07:39:02.462Z,11.68
2023-04-09T07:41:29.251Z,11.78
2023-04-09T07:43:56.209Z,11.81
2023-04-09T07:46:23.107Z,11.81
2023-04-09T07:48:50.122Z,11.80
2023-04-09T07:51:17.178Z,11.82
2023-04-09T07:53:43.970Z,11.83
2023-04-09T07:56:10.791Z,11.87
2023-04-09T07:58:40.161Z,11.92
2023-04-09T08:01:06.935Z,11.94
2023-04-09T08:03:33.922Z,11.96
2023-04-09T08:06:01.247Z,11.95
2023-04-09T08:08:28.397Z,11.95
2023-04-09T08:10:55.504Z,11.96
2023-04-09T08:13:25.286Z,11.99
2023-04-09T08:15:52.304Z,11.99
2023-04-09T08:18:19.178Z,12.01
2023-04-09T08:20:46.060Z,12.02
2023-04-09T08:23:13.087Z,12.02
2023-04-09T08:25:39.948Z,12.02
2023-04-09T08:28:06.786Z,12.00
2023-04-09T08:30:34.255Z,12.01
2023-04-09T08:33:02.502Z,12.04
2023-04-09T08:35:32.578Z,12.07
2023-04-09T08:37:59.830Z,12.10
2023-04-09T08:40:26.640Z,12.13
2023-04-09T08:42:58.660Z,12.19
2023-04-09T08:45:25.774Z,12.19
2023-04-09T08:47:52.928Z,12.17
2023-04-09T08:50:20.641Z,12.22
2023-04-09T08:52:48.583Z,12.27
2023-04-09T08:55:15.606Z,12.35
2023-04-09T08:57:43.767Z,12.42
2023-04-09T09:00:11.532Z,12.48
2023-04-09T09:02:39.460Z,12.53
2023-04-09T09:05:06.908Z,12.54
2023-04-09T09:07:34.223Z,12.59
2023-04-09T09:10:05.285Z,12.63
2023-04-09T09:12:41.075Z,12.70
2023-04-09T09:15:29.124Z,12.79
2023-04-09T09:18:00.591Z,12.89
2023-04-09T09:20:27.541Z,12.98
2023-04-09T09:22:56.776Z,13.03
2023-04-09T09:25:25.493Z,13.08
2023-04-09T09:27:53.820Z,13.08
2023-04-09T09:30:26.551Z,13.09
2023-04-09T09:33:06.375Z,13.12
2023-04-09T09:35:51.142Z,13.18
2023-04-09T09:38:18.381Z,13.22
2023-04-09T09:40:45.266Z,13.27
2023-04-09T09:43:15.590Z,13.32
2023-04-09T09:45:43.768Z,13.36
2023-04-09T09:48:12.721Z,13.37
2023-04-09T09:50:43.101Z,13.40
2023-04-09T09:53:11.920Z,13.43
2023-04-09T09:55:41.728Z,13.48
2023-04-09T09:58:23.653Z,13.50
2023-04-09T10:00:52.737Z,13.52
2023-04-09T10:03:25.275Z,13.50
2023-04-09T10:05:53.861Z,13.48
2023-04-09T10:08:22.823Z,13.47
2023-04-09T10:10:52.288Z,13.48
2023-04-09T10:13:32.172Z,13.50
2023-04-09T10:15:59.792Z,13.52
2023-04-09T10:18:26.676Z,13.59
2023-04-09T10:21:14.933Z,13.66
2023-04-09T10:23:44.373Z,13.70
2023-04-09T10:26:11.255Z,13.75
2023-04-09T10:28:38.487Z,13.77
2023-04-09T10:31:07.433Z,13.79
2023-04-09T10:33:37.331Z,13.79
2023-04-09T10:36:14.776Z,13.80
2023-04-09T10:38:45.817Z,13.78
2023-04-09T10:41:16.223Z,13.78
2023-04-09T10:43:43.811Z,13.76
2023-04-09T10:46:34.417Z,13.78
2023-04-09T10:49:18.741Z,13.81
2023-04-09T10:52:12.589Z,13.81
2023-04-09T10:54:46.068Z,13.80
2023-04-09T10:57:21.481Z,13.83
2023-04-09T10:59:55.809Z,13.80
2023-04-09T11:02:40.355Z,13.74
2023-04-09T11:05:22.433Z,13.78
2023-04-09T11:08:05.311Z,13.85
2023-04-09T11:10:36.356Z,13.88
2023-04-09T11:13:03.512Z,13.88
2023-04-09T11:15:34.849Z,13.89
2023-04-09T11:18:02.339Z,13.88
2023-04-09T11:20:31.012Z,13.92
2023-04-09T11:22:59.819Z,14.00
2023-04-09T11:25:30.553Z,14.14
2023-04-09T11:27:57.778Z,14.25
2023-04-09T11:30:24.822Z,14.34
2023-04-09T11:32:51.681Z,14.47
2023-04-09T11:35:21.525Z,14.61
2023-04-09T11:37:50.103Z,14.75
2023-04-09T11:40:19.808Z,14.88
2023-04-09T11:42:50.852Z,14.98
2023-04-09T11:45:18.805Z,15.05
2023-04-09T11:47:47.106Z,15.13
2023-04-09T11:50:16.121Z,15.16
2023-04-09T11:52:45.222Z,15.19
2023-04-09T11:55:12.588Z,15.20
2023-04-09T11:57:46.929Z,15.26
2023-04-09T12:00:15.272Z,15.34
2023-04-09T12:02:50.691Z,15.50
2023-04-09T12:05:30.478Z,15.67
2023-04-09T12:08:07.025Z,15.81
2023-04-09T12:10:38.672Z,15.94
2023-04-09T12:13:10.371Z,16.07
2023-04-09T12:15:41.102Z,16.17
2023-04-09T12:18:13.523Z,16.28
2023-04-09T12:20:47.364Z,16.35
2023-04-09T12:23:15.879Z,16.38
2023-04-09T12:25:45.444Z,16.40
2023-04-09T12:28:16.002Z,16.38
2023-04-09T12:30:43.907Z,16.35
2023-04-09T12:33:11.466Z,16.27
2023-04-09T12:35:38.795Z,16.25
2023-04-09T12:38:06.936Z,16.25
2023-04-09T12:40:35.650Z,16.30
2023-04-09T12:43:02.484Z,16.30
2023-04-09T12:45:30.311Z,16.29
2023-04-09T12:47:57.208Z,16.33
2023-04-09T12:50:24.280Z,16.35
2023-04-09T12:52:51.089Z,16.33
2023-04-09T12:55:17.891Z,16.34
2023-04-09T12:57:46.979Z,16.38
2023-04-09T13:00:14.622Z,16.44
2023-04-09T13:02:41.614Z,16.48
2023-04-09T13:05:08.763Z,16.51
2023-04-09T13:07:35.684Z,16.53
2023-04-09T13:10:02.573Z,16.56
2023-04-09T13:12:30.101Z,16.60
2023-04-09T13:14:56.879Z,16.63
2023-04-09T13:17:23.826Z,16.64
2023-04-09T13:19:51.686Z,16.67
2023-04-09T13:22:19.097Z,16.68
2023-04-09T13:24:45.957Z,16.69
2023-04-09T13:27:12.886Z,16.75
2023-04-09T13:29:39.709Z,16.82
2023-04-09T13:32:11.353Z,17.00
2023-04-09T13:34:39.627Z,17.17
2023-04-09T13:37:07.118Z,17.30
2023-04-09T13:39:33.997Z,17.43
2023-04-09T13:42:07.205Z,17.54
2023-04-09T13:44:42.022Z,17.63
2023-04-09T13:47:11.072Z,17.70
2023-04-09T13:49:37.924Z,17.76
2023-04-09T13:52:05.008Z,17.79
2023-04-09T13:54:32.784Z,17.80
2023-04-09T13:56:59.632Z,17.79
2023-04-09T13:59:26.535Z,17.76
2023-04-09T14:01:53.402Z,17.71
2023-04-09T14:04:20.493Z,17.72
2023-04-09T14:06:47.353Z,17.74
2023-04-09T14:09:15.468Z,17.78
2023-04-09T14:11:42.263Z,17.80
2023-04-09T14:14:09.356Z,17.82
2023-04-09T14:16:36.386Z,17.82
2023-04-09T14:19:03.225Z,17.81
2023-04-09T14:21:30.032Z,17.82
2023-04-09T14:23:56.839Z,17.80
2023-04-09T14:26:24.489Z,17.79
2023-04-09T14:28:51.775Z,17.81
2023-04-09T14:31:21.699Z,17.83
2023-04-09T14:33:48.760Z,17.86
2023-04-09T14:36:15.794Z,17.88
2023-04-09T14:38:42.599Z,17.91
2023-04-09T14:41:09.416Z,17.93
2023-04-09T14:43:36.211Z,17.94
2023-04-09T14:46:03.968Z,17.98
2023-04-09T14:48:30.830Z,18.00
2023-04-09T14:50:58.116Z,18.00
2023-04-09T14:53:25.243Z,17.99
2023-04-09T14:55:52.201Z,18.00
2023-04-09T14:58:18.991Z,18.02
2023-04-09T15:00:45.774Z,17.98
2023-04-09T15:03:12.765Z,17.98
2023-04-09T15:05:39.718Z,17.96
2023-04-09T15:08:06.499Z,17.94
2023-04-09T15:10:33.307Z,17.94
2023-04-09T15:13:00.106Z,17.93
2023-04-09T15:15:27.254Z,17.90
2023-04-09T15:17:54.087Z,17.89
2023-04-09T15:20:21.086Z,17.88
2023-04-09T15:22:47.899Z,17.87
2023-04-09T15:25:14.753Z,17.86
2023-04-09T15:27:41.564Z,17.83
2023-04-09T15:30:08.845Z,17.82
2023-04-09T15:32:35.611Z,17.78
2023-04-09T15:35:02.458Z,17.76
2023-04-09T15:37:29.251Z,17.74
2023-04-09T15:39:56.444Z,17.74
2023-04-09T15:42:23.210Z,17.72
2023-04-09T15:44:50.623Z,17.70
2023-04-09T15:47:17.686Z,17.69
2023-04-09T15:49:44.603Z,17.66
2023-04-09T15:52:11.389Z,17.66
2023-04-09T15:54:38.198Z,17.65
2023-04-09T15:57:05.083Z,17.65
2023-04-09T15:59:31.909Z,17.60
2023-04-09T16:01:58.821Z,17.58
2023-04-09T16:04:26.810Z,17.55
2023-04-09T16:06:55.363Z,17.54
2023-04-09T16:09:22.840Z,17.52
2023-04-09T16:11:51.520Z,17.50
2023-04-09T16:14:18.376Z,17.46
2023-04-09T16:16:49.604Z,17.43
2023-04-09T16:19:17.709Z,17.42
2023-04-09T16:21:45.363Z,17.39
2023-04-09T16:24:13.097Z,17.36
2023-04-09T16:26:44.440Z,17.33
2023-04-09T16:29:12.605Z,17.29
2023-04-09T16:31:42.152Z,17.27
2023-04-09T16:34:09.023Z,17.26
2023-04-09T16:36:37.065Z,17.26
2023-04-09T16:39:04.720Z,17.26
2023-04-09T16:41:31.547Z,17.23
2023-04-09T16:43:58.338Z,17.20
2023-04-09T16:46:25.292Z,17.17
2023-04-09T16:48:52.483Z,17.15
2023-04-09T16:51:19.610Z,17.11
2023-04-09T16:53:46.718Z,17.08
2023-04-09T16:56:15.531Z,17.02
2023-04-09T16:58:43.109Z,16.98
2023-04-09T17:01:09.974Z,16.94
2023-04-09T17:03:36.943Z,16.89
2023-04-09T17:06:04.665Z,16.85
2023-04-09T17:08:31.770Z,16.81
2023-04-09T17:11:04.150Z,16.78
2023-04-09T17:13:35.009Z,16.72
2023-04-09T17:16:02.748Z,16.69
2023-04-09T17:18:30.044Z,16.65
2023-04-09T17:20:56.975Z,16.60
2023-04-09T17:23:23.808Z,16.58
2023-04-09T17:25:50.602Z,16.53
2023-04-09T17:28:18.939Z,16.50
2023-04-09T17:30:46.161Z,16.46
2023-04-09T17:33:13.268Z,16.41
2023-04-09T17:35:41.837Z,16.37
2023-04-09T17:38:08.817Z,16.32
2023-04-09T17:40:35.841Z,16.27
2023-04-09T17:43:02.607Z,16.23
2023-04-09T17:45:29.529Z,16.18
2023-04-09T17:47:57.019Z,16.12
2023-04-09T17:50:24.138Z,16.07
2023-04-09T17:52:51.011Z,16.00
2023-04-09T17:55:18.250Z,15.96
2023-04-09T17:57:45.063Z,15.91
2023-04-09T18:00:12.533Z,15.86
2023-04-09T18:02:39.530Z,15.80
2023-04-09T18:05:07.286Z,15.75
2023-04-09T18:07:34.507Z,15.69
2023-04-09T18:10:03.442Z,15.63
2023-04-09T18:12:30.471Z,15.55
2023-04-09T18:14:57.243Z,15.49
2023-04-09T18:17:26.137Z,15.42
2023-04-09T18:19:54.812Z,15.35
2023-04-09T18:22:21.753Z,15.29
2023-04-09T18:24:48.688Z,15.21
2023-04-09T18:27:17.665Z,15.13
2023-04-09T18:29:44.472Z,15.07
2023-04-09T18:32:11.257Z,14.99
2023-04-09T18:34:38.092Z,14.93
2023-04-09T18:37:04.852Z,14.87
2023-04-09T18:39:31.669Z,14.79
2023-04-09T18:41:58.436Z,14.73
2023-04-09T18:44:25.204Z,14.65
2023-04-09T18:46:52.209Z,14.61
2023-04-09T18:49:19.059Z,14.55
2023-04-09T18:51:47.876Z,14.48
2023-04-09T18:54:34.914Z,14.45
2023-04-09T18:59:33.396Z,14.31
2023-04-09T19:02:01.157Z,14.24
2023-04-09T19:04:28.187Z,14.18
2023-04-09T19:06:55.239Z,14.13
2023-04-09T19:09:22.241Z,14.08
2023-04-09T19:11:49.015Z,14.03
2023-04-09T19:14:16.093Z,13.99
2023-04-09T19:16:44.217Z,13.94
2023-04-09T19:19:11.884Z,13.90
2023-04-09T19:21:38.695Z,13.85
2023-04-09T19:24:06.240Z,13.80
2023-04-09T19:26:33.214Z,13.76
2023-04-09T19:29:03.634Z,13.72
2023-04-09T19:31:30.624Z,13.67
2023-04-09T19:33:57.621Z,13.64
2023-04-09T19:36:24.392Z,13.61
2023-04-09T19:38:51.651Z,13.55
2023-04-09T19:41:18.630Z,13.52
2023-04-09T19:43:48.434Z,13.48
2023-04-09T19:46:15.287Z,13.43
2023-04-09T19:48:42.060Z,13.40
2023-04-09T19:51:15.709Z,13.35
2023-04-09T19:53:43.122Z,13.30
2023-04-09T19:56:10.774Z,13.25
2023-04-09T19:58:37.642Z,13.22
2023-04-09T20:01:04.811Z,13.20
2023-04-09T20:03:34.801Z,13.16
2023-04-09T20:06:08.501Z,13.13
2023-04-09T20:08:36.544Z,13.10
2023-04-09T20:11:04.009Z,13.07
2023-04-09T20:13:30.788Z,13.03
2023-04-09T20:15:57.631Z,13.02
2023-04-09T20:18:24.391Z,12.98
2023-04-09T20:20:51.857Z,12.96
2023-04-09T20:23:18.604Z,12.94
2023-04-09T20:25:45.348Z,12.91
2023-04-09T20:28:12.162Z,12.89
2023-04-09T20:30:38.921Z,12.85
2023-04-09T20:33:05.786Z,12.83
2023-04-09T20:35:36.123Z,12.81
2023-04-09T20:38:03.245Z,12.79
2023-04-09T20:40:31.246Z,12.76
2023-04-09T20:42:59.164Z,12.74
2023-04-09T20:45:26.129Z,12.70
2023-04-09T20:47:53.174Z,12.68
2023-04-09T20:50:20.066Z,12.64
2023-04-09T20:52:47.447Z,12.60
2023-04-09T20:55:14.482Z,12.55
2023-04-09T20:57:41.460Z,12.53
2023-04-09T21:00:09.007Z,12.48
2023-04-09T21:02:36.380Z,12.46
2023-04-09T21:05:11.827Z,12.43
2023-04-09T21:07:48.501Z,12.38
2023-04-09T21:10:15.487Z,12.34
2023-04-09T21:12:43.040Z,12.32
2023-04-09T21:15:10.557Z,12.27
2023-04-09T21:17:37.412Z,12.24
2023-04-09T21:20:04.622Z,12.20
2023-04-09T21:22:31.904Z,12.16
2023-04-09T21:24:58.718Z,12.12
2023-04-09T21:27:25.835Z,12.08
2023-04-09T21:29:53.574Z,12.05
2023-04-09T21:32:20.526Z,12.02
2023-04-09T21:34:47.421Z,11.99
2023-04-09T21:37:14.192Z,11.95
2023-04-09T21:39:41.059Z,11.93
2023-04-09T21:42:08.701Z,11.91
2023-04-09T21:44:35.536Z,11.89
2023-04-09T21:47:07.320Z,11.86
2023-04-09T21:49:39.042Z,11.83
2023-04-09T21:52:13.690Z,11.82
2023-04-09T21:54:42.030Z,11.78
2023-04-09T21:57:08.973Z,11.76
2023-04-09T21:59:38.507Z,11.74
2023-04-09T22:02:05.675Z,11.73
2023-04-09T22:04:34.829Z,11.72
2023-04-09T22:07:02.523Z,11.70
2023-04-09T22:09:30.238Z,11.68
2023-04-09T22:11:58.653Z,11.67
2023-04-09T22:14:29.505Z,11.65
2023-04-09T22:16:58.148Z,11.61
2023-04-09T22:19:26.084Z,11.60
2023-04-09T22:21:53.421Z,11.58
2023-04-09T22:24:21.384Z,11.54
2023-04-09T22:26:48.122Z,11.52
2023-04-09T22:29:14.914Z,11.52
2023-04-09T22:31:41.975Z,11.49
2023-04-09T22:34:20.193Z,11.47
2023-04-09T22:36:48.080Z,11.46
2023-04-09T22:39:14.888Z,11.44
2023-04-09T22:41:41.688Z,11.42
2023-04-09T22:44:09.425Z,11.41
2023-04-09T22:46:36.741Z,11.40
2023-04-09T22:49:05.611Z,11.37
2023-04-09T22:51:34.396Z,11.36
2023-04-09T23:01:09.336Z,11.21
2023-04-09T23:03:36.232Z,11.20
2023-04-09T23:06:03.064Z,11.18
2023-04-09T23:08:29.854Z,11.17
2023-04-09T23:10:57.243Z,11.15
2023-04-09T23:13:24.008Z,11.13
2023-04-09T23:15:50.920Z,11.12
2023-04-09T23:18:17.836Z,11.10
2023-04-09T23:20:44.664Z,11.07
2023-04-09T23:23:12.327Z,11.04
2023-04-09T23:25:39.089Z,11.02
2023-04-09T23:28:05.905Z,10.98
2023-04-09T23:30:32.925Z,10.95
2023-04-09T23:32:59.870Z,10.93
2023-04-09T23:35:26.664Z,10.91
2023-04-09T23:37:53.511Z,10.87
2023-04-09T23:40:20.321Z,10.84
2023-04-09T23:42:48.027Z,10.83
2023-04-09T23:45:14.932Z,10.81
2023-04-09T23:47:42.197Z,10.77
2023-04-09T23:50:09.574Z,10.75
2023-04-09T23:52:38.300Z,10.71
2023-04-09T23:55:10.642Z,10.69
2023-04-09T23:57:37.787Z,10.66
